Time;durP1;ratioP1;P1;durP2;ratioP2;P2;SDS_P1;SDS_P2;PMS_P1;PMS_P2;Temp;Humidity;BMP_temperature;BMP_pressure;BME280_temperature;BME280_humidity;BME280_pressure;Samples;Min_cycle;Max_cycle;Signal;HPM_P1;HPM_P2
2021/12/02 00:01:14;;;;;;;8.43;1.50;;;3.80;99.90;;;;;;5049375;28;20041;-65
2021/12/02 00:03:47;;;;;;;7.55;1.40;;;;;;;;;;5054325;28;20037;-65
2021/12/02 00:06:14;;;;;;;4.95;1.20;;;;;;;;;;5053337;28;20055;-66
2021/12/02 00:08:40;;;;;;;7.45;1.20;;;;;;;;;;5036407;28;20056;-65
2021/12/02 00:11:07;;;;;;;6.85;1.50;;;3.70;99.90;;;;;;5053538;28;20040;-65
2021/12/02 00:13:46;;;;;;;6.47;1.35;;;;;;;;;;5050485;28;20057;-65
2021/12/02 00:21:15;;;;;;;4.43;0.98;;;;;;;;;;5054088;28;20055;-65
2021/12/02 00:23:50;;;;;;;4.78;0.90;;;;;;;;;;5054303;28;20166;-65
2021/12/02 00:26:17;;;;;;;6.13;1.25;;;;;;;;;;5053085;28;20098;-65
2021/12/02 00:28:43;;;;;;;6.18;1.20;;;;;;;;;;5048904;28;20159;-65
2021/12/02 00:31:16;;;;;;;6.68;1.48;;;4.10;99.90;;;;;;5033493;28;20041;-65
2021/12/02 00:33:47;;;;;;;5.38;1.20;;;;;;;;;;5053763;28;20094;-65
2021/12/02 00:36:14;;;;;;;6.63;1.40;;;;;;;;;;5050406;28;20045;-65
2021/12/02 00:38:44;;;;;;;4.80;1.00;;;;;;;;;;5053879;28;20040;-65
2021/12/02 00:41:18;;;;;;;7.78;2.60;;;4.20;99.90;;;;;;5052173;28;20048;-66
2021/12/02 00:43:45;;;;;;;7.15;1.80;;;;;;;;;;5052665;28;20080;-66
2021/12/02 00:46:12;;;;;;;8.35;1.55;;;;;;;;;;5053180;28;20056;-66
2021/12/02 00:48:39;;;;;;;7.18;1.40;;;3.50;99.90;;;;;;5051759;28;20037;-66
2021/12/02 00:51:06;;;;;;;6.90;1.30;;;3.20;99.90;;;;;;5049474;28;20044;-66
2021/12/02 00:53:34;;;;;;;4.55;1.10;;;3.80;99.90;;;;;;5035524;28;20040;-67
2021/12/02 00:56:05;;;;;;;6.85;1.33;;;;;;;;;;5034823;28;20136;-67
2021/12/02 00:58:32;;;;;;;7.43;1.08;;;3.90;99.90;;;;;;5033969;28;20435;-66
2021/12/02 01:00:58;;;;;;;4.78;1.02;;;3.20;99.90;;;;;;5015239;28;20045;-67
2021/12/02 01:03:26;;;;;;;4.22;1.20;;;;;;;;;;5013790;28;20044;-66
2021/12/02 01:05:53;;;;;;;5.95;1.48;;;;;;;;;;5012957;28;20053;-67
2021/12/02 01:08:20;;;;;;;6.88;1.02;;;;;;;;;;5013412;28;20041;-67
2021/12/02 01:10:46;;;;;;;5.55;1.00;;;;;;;;;;4995534;28;20037;-66
2021/12/02 01:13:12;;;;;;;5.43;1.00;;;;;;;;;;5013030;28;20084;-67
2021/12/02 01:15:38;;;;;;;8.43;2.33;;;;;;;;;;5031158;28;20083;-66
2021/12/02 01:18:04;;;;;;;5.03;1.17;;;;;;;;;;5015031;28;20069;-67
2021/12/02 01:20:31;;;;;;;5.30;1.25;;;3.30;99.90;;;;;;5032917;28;20081;-66
2021/12/02 01:22:58;;;;;;;3.42;1.02;;;;;;;;;;5033000;28;20507;-66
2021/12/02 01:25:24;;;;;;;4.50;1.20;;;;;;;;;;5031692;28;20045;-66
2021/12/02 01:27:51;;;;;;;5.47;1.27;;;;;;;;;;5032205;28;20045;-66
2021/12/02 01:30:18;;;;;;;7.53;1.85;;;2.90;99.90;;;;;;5035976;28;20037;-66
2021/12/02 01:32:54;;;;;;;6.63;1.58;;;;;;;;;;5032893;28;20037;-66
2021/12/02 01:35:30;;;;;;;6.07;1.48;;;;;;;;;;5031186;28;20041;-66
2021/12/02 01:37:56;;;;;;;4.70;1.02;;;3.20;99.90;;;;;;5032558;28;20069;-65
2021/12/02 01:40:22;;;;;;;4.28;1.00;;;3.20;99.90;;;;;;5032154;28;20076;-66
2021/12/02 01:42:51;;;;;;;5.93;0.93;;;;;;;;;;5014589;28;20041;-66
2021/12/02 01:45:24;;;;;;;2.45;0.50;;;2.80;99.90;;;;;;5023476;28;20094;-66
2021/12/02 01:47:52;;;;;;;2.17;0.60;;;3.80;99.90;;;;;;5052258;28;20411;-66
2021/12/02 01:50:21;;;;;;;1.67;0.50;;;;;;;;;;5051727;28;20127;-66
2021/12/02 01:52:59;;;;;;;1.60;0.50;;;2.90;99.90;;;;;;5034359;28;20051;-66
2021/12/02 01:55:26;;;;;;;1.67;0.55;;;;;;;;;;5051291;28;20557;-66
2021/12/02 01:57:58;;;;;;;1.55;0.52;;;;;;;;;;5053219;28;20037;-65
2021/12/02 02:00:26;;;;;;;1.13;0.50;;;;;;;;;;5040183;28;20076;-65
2021/12/02 02:02:52;;;;;;;2.30;0.60;;;;;;;;;;5032796;28;20041;-66
2021/12/02 02:05:18;;;;;;;2.78;1.70;;;2.90;99.90;;;;;;5033528;28;20037;-65
2021/12/02 02:08:04;;;;;;;4.00;0.63;;;;;;;;;;5034012;28;20033;-66
2021/12/02 02:10:32;;;;;;;3.28;0.60;;;;;;;;;;5014171;28;20045;-66
2021/12/02 02:13:00;;;;;;;2.65;0.73;;;;;;;;;;5014736;28;20056;-66
2021/12/02 02:15:27;;;;;;;2.92;0.80;;;;;;;;;;5042644;28;20041;-66
2021/12/02 02:17:57;;;;;;;1.48;0.60;;;;;;;;;;5052010;28;20176;-65
2021/12/02 02:20:37;;;;;;;4.03;0.90;;;;;;;;;;5051535;28;20087;-65
2021/12/02 02:23:05;;;;;;;5.07;0.80;;;;;;;;;;5052200;28;20480;-66
2021/12/02 02:25:31;;;;;;;4.43;0.85;;;;;;;;;;5050564;28;20097;-67
2021/12/02 02:27:57;;;;;;;2.50;0.73;;;;;;;;;;5051581;28;20041;-65
2021/12/02 02:30:23;;;;;;;4.82;0.85;;;;;;;;;;5043837;28;20036;-66
2021/12/02 02:32:49;;;;;;;3.17;0.77;;;;;;;;;;5045082;28;20159;-66
2021/12/02 02:35:15;;;;;;;2.97;1.25;;;;;;;;;;5050026;28;20099;-65
2021/12/02 02:37:42;;;;;;;4.88;1.00;;;;;;;;;;5033982;28;20649;-65
2021/12/02 02:40:10;;;;;;;2.72;0.75;;;;;;;;;;5051262;28;20120;-66
2021/12/02 02:42:36;;;;;;;3.47;0.88;;;;;;;;;;5033521;28;20049;-67
2021/12/02 02:45:03;;;;;;;2.80;0.70;;;;;;;;;;5044848;28;20140;-67
2021/12/02 02:47:29;;;;;;;6.70;1.02;;;;;;;;;;5050956;28;20542;-67
2021/12/02 02:49:55;;;;;;;2.15;0.65;;;;;;;;;;5050858;28;20457;-67
2021/12/02 02:52:22;;;;;;;3.90;0.77;;;;;;;;;;5051225;28;20033;-66
2021/12/02 02:54:47;;;;;;;8.32;1.05;;;2.60;99.90;;;;;;5050085;28;20037;-66
2021/12/02 02:57:16;;;;;;;2.28;0.80;;;2.80;99.90;;;;;;5033050;28;20043;-66
2021/12/02 03:02:37;;;;;;;4.75;1.20;;;;;;;;;;5030471;28;20504;-65
2021/12/02 03:07:40;;;;;;;6.20;1.52;;;;;;;;;;5030366;28;20052;-65
2021/12/02 03:12:40;;;;;;;5.28;0.95;;;2.50;99.90;;;;;;5030994;28;20046;-66
2021/12/02 03:17:36;;;;;;;4.22;0.90;;;;;;;;;;5030966;28;20053;-65
2021/12/02 03:20:03;;;;;;;5.28;1.30;;;2.70;99.90;;;;;;5030021;28;20049;-66
2021/12/02 03:22:29;;;;;;;11.93;2.03;;;2.30;99.90;;;;;;5031078;28;20106;-66
2021/12/02 03:24:55;;;;;;;4.93;1.23;;;;;;;;;;5030111;28;20117;-66
2021/12/02 03:27:21;;;;;;;4.38;0.90;;;2.50;99.90;;;;;;5030703;28;20037;-66
2021/12/02 03:29:47;;;;;;;5.72;1.08;;;;;;;;;;5044410;28;20039;-67
2021/12/02 03:32:13;;;;;;;4.10;1.00;;;;;;;;;;4989487;28;20390;-66
2021/12/02 03:34:42;;;;;;;6.38;1.10;;;;;;;;;;5028888;28;20045;-65
2021/12/02 03:37:16;;;;;;;6.50;1.10;;;;;;;;;;5030833;28;20103;-65
2021/12/02 03:39:42;;;;;;;4.45;0.88;;;;;;;;;;5030248;28;20541;-66
2021/12/02 03:42:08;;;;;;;7.47;1.15;;;;;;;;;;5030340;28;20120;-67
2021/12/02 03:44:34;;;;;;;2.90;0.73;;;;;;;;;;5041761;28;20067;-66
2021/12/02 03:47:00;;;;;;;5.00;0.93;;;;;;;;;;5050306;28;20037;-67
2021/12/02 03:49:26;;;;;;;6.40;1.23;;;;;;;;;;5049697;28;20532;-68
2021/12/02 03:51:52;;;;;;;6.28;1.20;;;;;;;;;;5050027;28;20072;-67
2021/12/02 03:54:18;;;;;;;5.18;1.40;;;;;;;;;;5050038;28;20037;-68
2021/12/02 03:56:44;;;;;;;7.90;1.10;;;2.90;99.90;;;;;;5050444;28;20056;-66
2021/12/02 03:59:10;;;;;;;6.75;1.05;;;;;;;;;;5040984;28;20404;-66
2021/12/02 04:01:36;;;;;;;3.22;1.10;;;;;;;;;;5049616;28;20117;-66
2021/12/02 04:04:02;;;;;;;3.60;0.82;;;3.00;99.90;;;;;;5050323;28;20526;-66
2021/12/02 04:06:28;;;;;;;6.03;1.08;;;;;;;;;;5049204;28;20052;-67
2021/12/02 04:16:21;;;;;;;3.05;0.90;;;;;;;;;;5049063;28;20401;-66
2021/12/02 04:18:47;;;;;;;3.28;0.65;;;;;;;;;;5050110;28;20049;-67
2021/12/02 04:21:13;;;;;;;2.38;0.63;;;2.90;99.90;;;;;;5049421;28;20055;-68
2021/12/02 04:23:39;;;;;;;1.67;0.60;;;2.90;99.90;;;;;;5050051;28;20037;-68
2021/12/02 04:26:05;;;;;;;1.85;0.70;;;;;;;;;;5031348;28;20056;-67
2021/12/02 04:28:31;;;;;;;1.85;0.60;;;;;;;;;;5030851;28;20228;-69
2021/12/02 04:31:00;;;;;;;3.03;0.70;;;;;;;;;;5025053;28;20043;-68
2021/12/02 04:33:26;;;;;;;4.45;0.80;;;;;;;;;;5030369;28;20107;-67
2021/12/02 04:35:53;;;;;;;3.40;0.80;;;;;;;;;;5028390;28;20064;-67
2021/12/02 04:38:22;;;;;;;7.45;1.10;;;3.00;99.90;;;;;;5030079;28;20113;-67
2021/12/02 04:40:48;;;;;;;3.28;0.73;;;;;;;;;;5029702;28;20038;-68
2021/12/02 04:43:17;;;;;;;2.75;0.73;;;;;;;;;;5040227;28;20504;-68
2021/12/02 04:45:43;;;;;;;4.30;0.60;;;2.90;99.90;;;;;;5049521;28;20055;-67
2021/12/02 04:48:09;;;;;;;3.08;0.70;;;;;;;;;;5035093;28;20044;-68
2021/12/02 04:50:35;;;;;;;4.00;0.70;;;;;;;;;;5035323;28;20044;-68
2021/12/02 04:53:01;;;;;;;5.55;0.90;;;2.90;99.90;;;;;;5051601;28;20040;-68
2021/12/02 04:55:27;;;;;;;1.65;0.55;;;;;;;;;;5018648;28;20483;-67
2021/12/02 04:57:54;;;;;;;3.22;1.10;;;;;;;;;;5050083;28;20086;-68
2021/12/02 05:00:22;;;;;;;2.97;0.68;;;2.90;99.90;;;;;;5052325;28;20091;-67
2021/12/02 05:02:48;;;;;;;1.92;0.60;;;;;;;;;;5035369;28;20047;-67
2021/12/02 05:05:15;;;;;;;2.60;0.70;;;;;;;;;;5052769;28;20403;-67
2021/12/02 05:07:40;;;;;;;6.03;1.13;;;3.00;99.90;;;;;;5052637;28;20398;-67
2021/12/02 05:10:07;;;;;;;1.92;0.70;;;2.80;99.90;;;;;;5052348;28;20029;-67
2021/12/02 05:12:36;;;;;;;4.35;0.80;;;;;;;;;;5034185;28;20038;-67
2021/12/02 05:15:03;;;;;;;6.05;1.15;;;3.10;99.90;;;;;;5032389;28;20451;-67
2021/12/02 05:17:29;;;;;;;3.40;0.73;;;;;;;;;;5032167;28;20041;-67
2021/12/02 05:19:55;;;;;;;2.35;0.73;;;;;;;;;;5032767;28;20041;-67
2021/12/02 05:22:21;;;;;;;2.83;0.90;;;2.60;99.90;;;;;;5015024;28;20087;-67
2021/12/02 05:24:49;;;;;;;4.80;0.80;;;2.60;99.90;;;;;;5031851;28;20073;-67
2021/12/02 05:27:15;;;;;;;2.85;0.55;;;;;;;;;;5029743;28;20033;-67
2021/12/02 05:29:41;;;;;;;3.20;0.90;;;2.40;99.90;;;;;;5032962;28;20037;-66
2021/12/02 05:32:07;;;;;;;4.32;0.90;;;;;;;;;;5032720;28;20041;-66
2021/12/02 05:34:34;;;;;;;5.15;1.40;;;;;;;;;;5044124;28;20450;-67
2021/12/02 05:37:00;;;;;;;7.30;1.20;;;;;;;;;;5052659;28;20045;-67
2021/12/02 05:39:26;;;;;;;3.95;1.20;;;;;;;;;;5050698;28;20408;-67
2021/12/02 05:41:53;;;;;;;6.03;1.20;;;;;;;;;;5031933;28;20045;-66
2021/12/02 05:44:21;;;;;;;3.97;1.10;;;3.10;99.90;;;;;;5031030;28;20460;-66
2021/12/02 05:46:47;;;;;;;3.50;0.93;;;;;;;;;;5008948;28;20033;-66
2021/12/02 05:49:12;;;;;;;4.70;1.17;;;2.90;99.90;;;;;;5007314;28;20046;-67
2021/12/02 05:51:40;;;;;;;4.85;1.10;;;;;;;;;;5003719;28;20048;-67
2021/12/02 05:54:06;;;;;;;3.97;0.80;;;;;;;;;;5073311;23;20132;-80
2021/12/02 05:56:32;;;;;;;2.10;0.63;;;2.80;99.90;;;;;;5016892;28;20041;-79
2021/12/02 05:58:58;;;;;;;4.50;0.73;;;;;;;;;;5011898;28;20044;-79
2021/12/02 06:01:24;;;;;;;2.70;0.60;;;;;;;;;;5002790;28;20554;-80
2021/12/02 06:03:50;;;;;;;2.97;0.70;;;;;;;;;;5019934;28;20060;-80
2021/12/02 06:06:17;;;;;;;3.42;1.02;;;2.80;99.90;;;;;;5000010;28;20095;-79
2021/12/02 06:08:43;;;;;;;2.42;0.52;;;;;;;;;;5001346;28;20038;-79
2021/12/02 06:11:09;;;;;;;2.53;0.68;;;2.70;99.90;;;;;;5020400;28;20111;-79
2021/12/02 06:13:35;;;;;;;4.03;0.90;;;;;;;;;;5001982;28;20042;-79
2021/12/02 06:16:00;;;;;;;4.40;0.75;;;3.00;99.90;;;;;;5018362;28;20041;-79
2021/12/02 06:18:26;;;;;;;2.08;0.70;;;;;;;;;;5022034;28;20491;-79
2021/12/02 06:20:55;;;;;;;2.80;0.80;;;;;;;;;;5024265;28;20110;-79
2021/12/02 06:23:22;;;;;;;8.98;1.65;;;;;;;;;;5007466;28;20037;-78
2021/12/02 06:25:48;;;;;;;2.40;0.70;;;3.00;99.90;;;;;;5031458;28;20072;-77
2021/12/02 06:28:15;;;;;;;4.70;0.82;;;2.90;99.90;;;;;;5033954;28;20044;-77
2021/12/02 06:30:41;;;;;;;3.95;0.80;;;;;;;;;;5033212;28;20523;-77
2021/12/02 06:33:08;;;;;;;4.63;1.23;;;3.10;99.90;;;;;;5033399;28;20041;-77
2021/12/02 06:35:34;;;;;;;1.77;0.70;;;;;;;;;;5015410;28;20041;-79
2021/12/02 06:38:00;;;;;;;3.70;1.27;;;;;;;;;;5038404;28;20060;-77
2021/12/02 06:40:26;;;;;;;1.90;0.75;;;;;;;;;;5032749;28;20049;-77
2021/12/02 06:42:52;;;;;;;6.72;1.05;;;2.80;99.90;;;;;;5033105;28;20048;-77
2021/12/02 06:45:19;;;;;;;4.30;0.70;;;;;;;;;;5032836;28;20118;-77
2021/12/02 06:47:46;;;;;;;2.90;0.70;;;3.10;99.90;;;;;;5030101;28;20183;-77
2021/12/02 06:50:17;;;;;;;5.10;0.85;;;2.80;99.90;;;;;;5032766;28;20451;-76
2021/12/02 06:52:43;;;;;;;2.92;1.02;;;;;;;;;;5037933;28;20127;-75
2021/12/02 06:55:10;;;;;;;2.88;0.60;;;;;;;;;;5035630;28;20059;-78
2021/12/02 06:57:36;;;;;;;4.90;0.80;;;;;;;;;;5039863;28;20041;-78
2021/12/02 07:00:07;;;;;;;3.28;0.95;;;;;;;;;;5034028;28;20076;-78
2021/12/02 07:02:33;;;;;;;3.83;0.82;;;;;;;;;;5012711;28;20040;-76
2021/12/02 07:05:01;;;;;;;4.80;1.15;;;;;;;;;;5031511;28;20401;-79
2021/12/02 07:07:31;;;;;;;3.28;0.90;;;;;;;;;;5036022;28;20127;-78
2021/12/02 07:09:58;;;;;;;3.17;0.90;;;3.00;99.90;;;;;;5020042;28;20072;-78
2021/12/02 07:12:29;;;;;;;4.53;1.42;;;;;;;;;;5017942;28;20041;-77
2021/12/02 07:14:57;;;;;;;6.15;1.73;;;;;;;;;;5016119;28;20059;-77
2021/12/02 07:17:23;;;;;;;4.15;1.10;;;;;;;;;;5035665;28;20086;-79
2021/12/02 07:19:49;;;;;;;7.50;2.03;;;;;;;;;;5033088;28;20041;-77
2021/12/02 07:22:15;;;;;;;16.10;1.67;;;;;;;;;;5033667;28;20055;-78
2021/12/02 07:24:41;;;;;;;3.05;0.90;;;;;;;;;;5031893;28;20037;-78
2021/12/02 07:27:07;;;;;;;4.57;1.40;;;;;;;;;;5032258;28;20359;-78
2021/12/02 07:29:33;;;;;;;4.10;1.00;;;;;;;;;;5014946;28;20041;-78
2021/12/02 07:32:01;;;;;;;2.97;0.90;;;;;;;;;;5014055;28;20091;-77
2021/12/02 07:34:32;;;;;;;2.72;0.80;;;2.90;99.90;;;;;;5023160;28;20052;-82
2021/12/02 07:36:58;;;;;;;3.45;0.93;;;2.90;99.90;;;;;;5034141;28;20065;-80
2021/12/02 07:39:25;;;;;;;4.55;1.10;;;2.70;99.90;;;;;;5009478;28;20385;-78
2021/12/02 07:41:51;;;;;;;4.20;1.33;;;;;;;;;;5032938;28;20053;-79
2021/12/02 07:44:18;;;;;;;5.07;1.20;;;;;;;;;;5035467;28;20052;-79
2021/12/02 07:46:44;;;;;;;5.82;1.98;;;;;;;;;;5017640;28;20041;-80
2021/12/02 07:49:14;;;;;;;7.05;1.45;;;;;;;;;;5029772;28;20070;-78
2021/12/02 07:51:42;;;;;;;6.72;1.23;;;;;;;;;;5026353;28;20090;-78
2021/12/02 07:54:09;;;;;;;10.02;2.03;;;;;;;;;;5035627;28;20036;-79
2021/12/02 07:56:35;;;;;;;7.35;1.88;;;;;;;;;;5038768;28;20048;-77
2021/12/02 07:59:01;;;;;;;6.53;1.60;;;;;;;;;;5033599;28;20399;-78
2021/12/02 08:01:27;;;;;;;12.48;2.47;;;;;;;;;;5032821;28;20091;-78
2021/12/02 08:03:53;;;;;;;3.50;1.20;;;;;;;;;;5015832;28;20098;-78
2021/12/02 08:06:19;;;;;;;5.65;1.80;;;2.90;99.90;;;;;;5035257;28;20051;-78
2021/12/02 08:08:45;;;;;;;6.35;1.67;;;2.90;99.90;;;;;;5053320;28;20119;-77
2021/12/02 08:11:12;;;;;;;6.38;1.77;;;;;;;;;;5049937;28;20041;-77
2021/12/02 08:13:38;;;;;;;6.47;1.45;;;;;;;;;;5035646;28;20545;-76
2021/12/02 08:16:05;;;;;;;7.15;1.70;;;;;;;;;;5030169;28;20071;-76
2021/12/02 08:18:32;;;;;;;4.68;1.30;;;2.90;99.90;;;;;;5040002;28;20047;-77
2021/12/02 08:20:59;;;;;;;4.38;0.98;;;;;;;;;;5032177;28;20037;-78
2021/12/02 08:23:25;;;;;;;4.53;1.02;;;;;;;;;;5031965;28;20032;-79
2021/12/02 08:25:51;;;;;;;3.63;1.10;;;;;;;;;;5043183;28;20069;-80
2021/12/02 08:28:17;;;;;;;6.63;1.20;;;;;;;;;;5021831;28;20041;-80
2021/12/02 08:30:43;;;;;;;5.68;1.10;;;;;;;;;;5038221;28;20116;-81
2021/12/02 08:33:12;;;;;;;6.95;1.30;;;;;;;;;;5032243;28;20040;-79
2021/12/02 08:35:38;;;;;;;5.75;1.05;;;3.00;99.90;;;;;;5027664;28;20036;-76
2021/12/02 08:38:10;;;;;;;4.88;1.13;;;3.00;99.90;;;;;;5018113;28;20042;-79
2021/12/02 08:40:37;;;;;;;5.63;1.27;;;3.70;99.90;;;;;;5023799;28;20061;-80
2021/12/02 08:43:04;;;;;;;7.22;1.20;;;;;;;;;;5028435;28;20073;-79
2021/12/02 08:45:31;;;;;;;6.15;1.55;;;;;;;;;;5021784;28;20033;-76
2021/12/02 08:47:58;;;;;;;5.00;1.17;;;3.10;99.90;;;;;;5026517;28;20572;-75
2021/12/02 08:50:24;;;;;;;5.13;0.95;;;3.20;99.90;;;;;;5027897;28;20687;-77
2021/12/02 08:52:50;;;;;;;7.60;1.60;;;;;;;;;;5033152;28;20073;-79
2021/12/02 08:55:18;;;;;;;7.65;1.10;;;;;;;;;;5021503;28;20072;-78
2021/12/02 08:57:44;;;;;;;3.45;0.90;;;;;;;;;;5027162;28;20078;-76
2021/12/02 09:00:12;;;;;;;4.75;0.80;;;;;;;;;;5038123;28;20047;-79
2021/12/02 09:02:38;;;;;;;7.00;0.98;;;3.20;99.90;;;;;;5039441;28;20037;-79
2021/12/02 09:05:04;;;;;;;3.75;0.93;;;;;;;;;;5039679;28;20040;-78
2021/12/02 09:07:30;;;;;;;6.40;0.98;;;3.80;99.90;;;;;;5022019;28;20041;-79
2021/12/02 09:09:56;;;;;;;4.97;1.08;;;3.20;99.90;;;;;;5042511;28;20033;-80
2021/12/02 09:12:23;;;;;;;6.47;1.20;;;;;;;;;;5040064;28;20048;-77
2021/12/02 09:14:49;;;;;;;4.22;1.00;;;;;;;;;;5038119;28;20080;-74
2021/12/02 09:17:15;;;;;;;2.20;0.77;;;;;;;;;;5036326;28;20116;-77
2021/12/02 09:19:41;;;;;;;2.78;0.80;;;;;;;;;;5012145;28;20043;-78
2021/12/02 09:22:07;;;;;;;4.97;1.20;;;;;;;;;;5019521;28;20041;-76
2021/12/02 09:24:33;;;;;;;5.28;0.90;;;;;;;;;;5017897;28;20080;-75
2021/12/02 09:26:59;;;;;;;3.80;1.13;;;;;;;;;;5035495;28;20052;-74
2021/12/02 09:29:25;;;;;;;6.25;1.05;;;;;;;;;;5026076;28;20407;-77
2021/12/02 09:31:52;;;;;;;8.02;1.30;;;;;;;;;;5049708;28;20043;-78
2021/12/02 09:34:19;;;;;;;6.55;1.35;;;3.40;99.90;;;;;;5041905;28;20037;-78
2021/12/02 09:36:46;;;;;;;5.15;1.27;;;;;;;;;;5032896;28;20048;-77
2021/12/02 09:39:13;;;;;;;7.78;2.03;;;;;;;;;;5055035;28;20259;-75
2021/12/02 09:41:40;;;;;;;3.30;1.00;;;;;;;;;;5036762;28;20134;-76
2021/12/02 09:44:06;;;;;;;2.42;1.05;;;;;;;;;;5035335;28;20045;-77
2021/12/02 09:46:33;;;;;;;6.07;0.90;;;;;;;;;;5013746;28;20337;-76
2021/12/02 09:49:02;;;;;;;4.32;1.10;;;;;;;;;;5034637;28;20041;-76
2021/12/02 09:51:35;;;;;;;4.07;1.25;;;3.30;99.90;;;;;;5034284;28;20043;-77
2021/12/02 09:54:14;;;;;;;4.75;0.82;;;;;;;;;;5034898;28;20487;-77
2021/12/02 09:56:43;;;;;;;3.53;0.80;;;;;;;;;;5038918;28;20054;-77
2021/12/02 09:59:12;;;;;;;3.92;1.00;;;;;;;;;;5044132;28;20041;-75
2021/12/02 10:01:51;;;;;;;4.80;1.00;;;4.60;99.90;;;;;;5034416;28;20106;-74
2021/12/02 10:04:22;;;;;;;5.70;1.10;;;4.30;99.90;;;;;;5033171;28;20041;-76
2021/12/02 10:06:48;;;;;;;6.60;1.00;;;;;;;;;;5034156;28;20041;-76
2021/12/02 10:11:54;;;;;;;3.63;1.45;;;;;;;;;;5040469;28;20560;-75
2021/12/02 10:14:25;;;;;;;1.92;0.70;;;4.00;99.90;;;;;;5037347;28;20041;-75
2021/12/02 10:17:10;;;;;;;3.40;0.90;;;3.90;99.90;;;;;;4998878;28;20045;-75
2021/12/02 10:19:36;;;;;;;3.42;0.90;;;3.50;99.90;;;;;;5044144;28;20466;-77
2021/12/02 10:22:10;;;;;;;3.58;0.80;;;;;;;;;;5019749;28;20098;-76
2021/12/02 10:24:43;;;;;;;3.83;0.95;;;;;;;;;;5033184;28;20045;-76
2021/12/02 10:27:11;;;;;;;3.03;0.85;;;;;;;;;;5032317;28;20041;-76
2021/12/02 10:29:39;;;;;;;3.85;0.70;;;;;;;;;;5032336;28;20040;-76
2021/12/02 10:32:08;;;;;;;4.15;0.95;;;;;;;;;;5017615;28;20037;-76
2021/12/02 10:34:50;;;;;;;5.03;1.08;;;;;;;;;;5010156;28;20087;-77
2021/12/02 10:37:19;;;;;;;3.00;0.70;;;;;;;;;;5037742;28;20044;-77
2021/12/02 10:40:06;;;;;;;3.47;1.00;;;;;;;;;;5032973;28;20043;-76
2021/12/02 10:42:34;;;;;;;2.50;0.80;;;2.90;99.90;;;;;;5033822;28;20041;-77
2021/12/02 10:45:02;;;;;;;3.63;1.23;;;3.00;99.90;;;;;;5032226;28;20041;-76
2021/12/02 10:47:29;;;;;;;3.78;1.20;;;;;;;;;;5033302;28;20040;-75
2021/12/02 10:49:58;;;;;;;4.10;0.88;;;2.70;99.90;;;;;;5016434;28;20040;-75
2021/12/02 10:52:25;;;;;;;4.65;0.95;;;;;;;;;;5017324;28;20049;-76
2021/12/02 10:55:03;;;;;;;3.92;1.00;;;;;;;;;;5032968;28;20044;-76
2021/12/02 10:57:30;;;;;;;5.82;1.08;;;;;;;;;;5017320;28;20040;-77
2021/12/02 11:00:00;;;;;;;4.47;1.00;;;;;;;;;;5017066;28;20045;-77
2021/12/02 11:02:27;;;;;;;5.05;1.00;;;;;;;;;;5032869;28;20048;-75
2021/12/02 11:04:56;;;;;;;3.42;0.85;;;;;;;;;;5033457;28;20095;-77
2021/12/02 11:07:35;;;;;;;4.65;1.38;;;2.90;99.90;;;;;;5045434;28;20051;-76
2021/12/02 11:10:09;;;;;;;5.10;1.00;;;2.60;99.90;;;;;;5054592;28;20043;-78
2021/12/02 11:12:42;;;;;;;5.50;1.10;;;3.30;99.90;;;;;;5033417;28;20037;-77
2021/12/02 11:15:12;;;;;;;3.20;1.00;;;;;;;;;;5043214;28;20048;-75
2021/12/02 11:17:46;;;;;;;5.10;1.00;;;;;;;;;;5033220;28;20032;-76
2021/12/02 11:20:16;;;;;;;5.10;1.48;;;;;;;;;;5050347;28;20044;-76
2021/12/02 11:22:42;;;;;;;4.10;1.00;;;;;;;;;;5034195;28;20114;-76
2021/12/02 11:25:09;;;;;;;4.88;1.30;;;;;;;;;;5033130;28;20212;-73
2021/12/02 11:27:40;;;;;;;6.38;1.30;;;;;;;;;;5033358;28;20041;-73
2021/12/02 11:30:06;;;;;;;7.10;1.20;;;;;;;;;;5032207;28;20041;-79
2021/12/02 11:32:40;;;;;;;5.85;1.10;;;;;;;;;;5028329;28;20089;-75
2021/12/02 11:35:14;;;;;;;4.85;1.00;;;4.00;99.90;;;;;;5042583;28;20235;-76
2021/12/02 11:37:49;;;;;;;6.60;1.67;;;3.80;99.90;;;;;;5014574;28;20044;-77
2021/12/02 11:40:35;;;;;;;6.97;1.40;;;;;;;;;;5029991;28;20204;-76
2021/12/02 11:43:01;;;;;;;5.85;1.40;;;;;;;;;;5028388;28;20625;-76
2021/12/02 11:45:29;;;;;;;5.70;1.42;;;;;;;;;;5009504;28;21240;-76
2021/12/02 11:47:55;;;;;;;10.38;2.03;;;;;;;;;;5029485;28;20464;-76
2021/12/02 11:50:23;;;;;;;6.53;1.30;;;;;;;;;;5022523;28;20041;-76
2021/12/02 11:52:49;;;;;;;4.22;1.25;;;4.80;99.90;;;;;;5012064;28;20511;-75
2021/12/02 11:55:19;;;;;;;5.68;1.10;;;;;;;;;;5025287;28;20061;-75
2021/12/02 11:57:46;;;;;;;9.52;1.35;;;;;;;;;;5029229;28;20037;-73
2021/12/02 12:00:15;;;;;;;3.10;1.00;;;5.40;99.90;;;;;;5009212;28;20120;-74
2021/12/02 12:02:49;;;;;;;7.20;0.90;;;;;;;;;;5006650;28;20059;-74
2021/12/02 12:05:19;;;;;;;3.50;1.45;;;5.00;99.90;;;;;;5026245;28;20610;-72
2021/12/02 12:07:47;;;;;;;1.92;0.90;;;;;;;;;;5023487;28;20042;-73
2021/12/02 12:10:26;;;;;;;3.83;0.88;;;5.40;99.90;;;;;;5029308;28;20158;-74
2021/12/02 12:12:53;;;;;;;4.35;0.90;;;;;;;;;;5036060;28;20036;-74
2021/12/02 12:15:55;;;;;;;3.03;0.82;;;5.60;99.90;;;;;;5038343;28;20052;-74
2021/12/02 12:18:34;;;;;;;5.05;1.05;;;;;;;;;;4960383;28;20093;-74
2021/12/02 12:21:00;;;;;;;4.07;1.45;;;;;;;;;;5042509;28;20475;-74
2021/12/02 12:23:30;;;;;;;3.33;0.95;;;;;;;;;;5048866;28;20437;-74
2021/12/02 12:26:13;;;;;;;3.80;1.25;;;;;;;;;;5038878;28;20048;-73
2021/12/02 12:29:07;;;;;;;4.15;1.10;;;6.60;99.90;;;;;;5056749;28;20410;-73
2021/12/02 12:32:04;;;;;;;5.57;1.77;;;7.40;99.90;;;;;;5056302;28;20044;-74
2021/12/02 12:34:43;;;;;;;3.08;1.00;;;7.30;99.90;;;;;;5039555;28;20300;-74
2021/12/02 12:37:21;;;;;;;4.90;1.15;;;;;;;;;;5056714;28;20048;-74
2021/12/02 12:40:06;;;;;;;8.38;1.20;;;;;;;;;;5056560;28;20645;-73
2021/12/02 12:42:32;;;;;;;4.45;1.60;;;;;;;;;;5072931;28;20036;-75
2021/12/02 12:44:59;;;;;;;4.82;1.17;;;;;;;;;;5035524;28;20068;-72
2021/12/02 12:47:43;;;;;;;5.35;1.33;;;10.40;99.90;;;;;;5032041;28;20092;-71
2021/12/02 12:50:47;;;;;;;4.50;1.08;;;10.30;99.90;;;;;;5038137;28;20037;-72
2021/12/02 12:53:16;;;;;;;3.25;0.90;;;;;;;;;;5036480;28;20499;-74
2021/12/02 12:56:04;;;;;;;6.65;1.38;;;10.90;99.90;;;;;;5065210;28;20041;-72
2021/12/02 12:58:59;;;;;;;5.63;1.20;;;10.70;99.90;;;;;;5055998;28;20574;-73
2021/12/02 13:01:26;;;;;;;5.53;2.17;;;;;;;;;;5049832;28;20079;-73
2021/12/02 13:04:07;;;;;;;7.22;1.77;;;10.70;99.90;;;;;;5043976;28;20051;-72
2021/12/02 13:06:47;;;;;;;8.20;2.30;;;;;;;;;;5053448;28;20048;-73
2021/12/02 13:09:53;;;;;;;4.97;1.10;;;10.10;99.90;;;;;;5034147;28;20041;-74
2021/12/02 13:12:21;;;;;;;2.95;1.27;;;;;;;;;;5073050;28;20550;-75
2021/12/02 13:14:50;;;;;;;2.70;0.93;;;13.10;99.90;;;;;;5073591;28;20431;-72
2021/12/02 13:17:41;;;;;;;5.18;1.00;;;12.60;99.60;;;;;;5074182;28;20094;-73
2021/12/02 13:20:18;;;;;;;5.07;1.00;;;;;;;;;;5054929;28;20072;-73
2021/12/02 13:22:45;;;;;;;5.10;1.13;;;;;;;;;;5053509;28;20048;-71
2021/12/02 13:25:24;;;;;;;4.07;0.70;;;11.50;99.90;;;;;;5044686;28;20438;-72
2021/12/02 13:27:51;;;;;;;4.18;0.95;;;;;;;;;;5055760;28;20173;-72
2021/12/02 13:30:17;;;;;;;3.72;0.95;;;;;;;;;;5039963;28;20066;-72
2021/12/02 13:32:50;;;;;;;3.70;1.00;;;;;;;;;;5039719;28;20045;-71
2021/12/02 13:35:26;;;;;;;2.95;0.85;;;;;;;;;;5052755;28;20049;-72
2021/12/02 13:38:05;;;;;;;3.50;1.55;;;9.60;99.90;;;;;;5053587;28;20080;-73
2021/12/02 13:40:39;;;;;;;4.88;1.10;;;9.30;99.90;;;;;;5052891;28;20334;-72
2021/12/02 13:43:05;;;;;;;3.92;0.95;;;8.80;99.90;;;;;;5034925;28;20045;-72
2021/12/02 13:45:31;;;;;;;4.47;1.13;;;;;;;;;;5052041;28;20052;-72
2021/12/02 13:48:21;;;;;;;4.70;1.00;;;8.80;99.90;;;;;;5031503;28;20036;-72
2021/12/02 13:50:51;;;;;;;4.20;1.00;;;8.40;99.90;;;;;;5051981;28;20053;-71
2021/12/02 13:53:18;;;;;;;4.35;1.17;;;8.10;99.90;;;;;;5059987;28;20037;-71
2021/12/02 13:55:50;;;;;;;3.58;1.00;;;8.00;99.90;;;;;;5052378;28;20381;-72
2021/12/02 13:58:29;;;;;;;4.03;0.90;;;;;;;;;;5052389;28;20059;-72
2021/12/02 14:00:59;;;;;;;4.03;1.23;;;;;;;;;;5034767;28;20466;-72
2021/12/02 14:03:26;;;;;;;5.45;0.90;;;;;;;;;;5026835;28;20103;-72
2021/12/02 14:05:58;;;;;;;3.92;1.00;;;7.90;99.90;;;;;;5041231;28;20063;-73
2021/12/02 14:08:26;;;;;;;4.20;0.93;;;;;;;;;;5031057;28;20457;-72
2021/12/02 14:10:53;;;;;;;7.05;2.50;;;;;;;;;;5051536;28;20048;-72
2021/12/02 14:13:26;;;;;;;3.10;1.05;;;;;;;;;;5030155;28;20064;-72
2021/12/02 14:16:00;;;;;;;3.47;0.80;;;8.40;99.90;;;;;;5040695;28;20037;-72
2021/12/02 14:18:27;;;;;;;4.22;0.90;;;;;;;;;;5014704;28;20092;-71
2021/12/02 14:20:55;;;;;;;5.90;1.10;;;;;;;;;;5031651;28;20514;-72
2021/12/02 14:23:21;;;;;;;3.92;0.93;;;;;;;;;;5032921;28;20129;-71
2021/12/02 14:25:51;;;;;;;5.30;1.45;;;;;;;;;;5032656;28;20045;-70
2021/12/02 14:28:19;;;;;;;4.55;1.23;;;;;;;;;;5032527;28;20097;-71
2021/12/02 14:30:50;;;;;;;6.40;1.55;;;;;;;;;;5032139;28;20045;-71
2021/12/02 14:33:18;;;;;;;7.50;1.80;;;6.60;99.90;;;;;;5042084;28;20037;-71
2021/12/02 14:35:44;;;;;;;4.88;1.60;;;;;;;;;;5051529;28;20045;-70
2021/12/02 14:38:24;;;;;;;4.82;1.65;;;5.90;99.90;;;;;;5052570;28;20045;-73
2021/12/02 14:40:59;;;;;;;6.65;1.70;;;;;;;;;;5088094;27;20502;-65
2021/12/02 14:43:33;;;;;;;6.68;1.60;;;;;;;;;;5088118;28;20519;-65